sensor_id;sensor_type;location;lat;lon;timestamp;P1;durP1;ratioP1;P2;durP2;ratioP2
70733;SDS011;58320;48.804;9.252;2023-10-31T00:02:14;2.40;;;1.07;;
70733;SDS011;58320;48.804;9.252;2023-10-31T00:04:39;3.60;;;0.80;;
70733;SDS011;58320;48.804;9.252;2023-10-31T00:07:06;1.80;;;0.80;;
70733;SDS011;58320;48.804;9.252;2023-10-31T00:09:32;3.00;;;0.90;;
70733;SDS011;58320;48.804;9.252;2023-10-31T00:11:58;1.98;;;0.60;;
70733;SDS011;58320;48.804;9.252;2023-10-31T00:14:24;2.50;;;0.60;;
70733;SDS011;58320;48.804;9.252;2023-10-31T00:16:49;1.53;;;0.60;;
70733;SDS011;58320;48.804;9.252;2023-10-31T00:19:15;2.10;;;0.80;;
70733;SDS011;58320;48.804;9.252;2023-10-31T00:21:41;1.77;;;0.83;;
70733;SDS011;58320;48.804;9.252;2023-10-31T00:24:07;3.17;;;0.93;;
70733;SDS011;58320;48.804;9.252;2023-10-31T00:26:32;3.10;;;0.90;;
70733;SDS011;58320;48.804;9.252;2023-10-31T00:28:58;1.63;;;0.60;;
70733;SDS011;58320;48.804;9.252;2023-10-31T00:31:24;1.90;;;0.70;;
70733;SDS011;58320;48.804;9.252;2023-10-31T00:33:49;1.75;;;0.80;;
70733;SDS011;58320;48.804;9.252;2023-10-31T00:36:15;1.70;;;0.70;;
70733;SDS011;58320;48.804;9.252;2023-10-31T00:38:41;2.20;;;0.80;;
70733;SDS011;58320;48.804;9.252;2023-10-31T00:41:06;2.20;;;0.87;;
70733;SDS011;58320;48.804;9.252;2023-10-31T00:43:32;2.00;;;0.80;;
70733;SDS011;58320;48.804;9.252;2023-10-31T00:45:58;2.00;;;0.90;;
70733;SDS011;58320;48.804;9.252;2023-10-31T00:48:24;2.40;;;0.90;;
70733;SDS011;58320;48.804;9.252;2023-10-31T00:50:49;2.20;;;0.98;;
70733;SDS011;58320;48.804;9.252;2023-10-31T00:53:15;3.23;;;0.90;;
70733;SDS011;58320;48.804;9.252;2023-10-31T00:55:41;2.17;;;1.05;;
70733;SDS011;58320;48.804;9.252;2023-10-31T00:58:07;2.42;;;0.80;;
70733;SDS011;58320;48.804;9.252;2023-10-31T01:00:33;2.00;;;0.80;;
70733;SDS011;58320;48.804;9.252;2023-10-31T01:02:59;2.83;;;1.02;;
70733;SDS011;58320;48.804;9.252;2023-10-31T01:05:25;2.28;;;0.90;;
70733;SDS011;58320;48.804;9.252;2023-10-31T01:07:53;2.95;;;0.93;;
70733;SDS011;58320;48.804;9.252;2023-10-31T01:10:19;2.00;;;0.90;;
70733;SDS011;58320;48.804;9.252;2023-10-31T01:12:45;2.10;;;0.70;;
70733;SDS011;58320;48.804;9.252;2023-10-31T01:15:11;1.90;;;0.98;;
70733;SDS011;58320;48.804;9.252;2023-10-31T01:17:36;2.30;;;1.00;;
70733;SDS011;58320;48.804;9.252;2023-10-31T01:20:02;2.55;;;1.02;;
70733;SDS011;58320;48.804;9.252;2023-10-31T01:22:29;2.30;;;1.00;;
70733;SDS011;58320;48.804;9.252;2023-10-31T01:24:54;2.73;;;1.20;;
70733;SDS011;58320;48.804;9.252;2023-10-31T01:27:20;1.60;;;0.63;;
70733;SDS011;58320;48.804;9.252;2023-10-31T01:29:46;1.87;;;0.77;;
70733;SDS011;58320;48.804;9.252;2023-10-31T01:32:11;2.90;;;0.90;;
70733;SDS011;58320;48.804;9.252;2023-10-31T01:34:37;2.20;;;1.10;;
70733;SDS011;58320;48.804;9.252;2023-10-31T01:37:03;1.90;;;0.80;;
70733;SDS011;58320;48.804;9.252;2023-10-31T01:39:29;2.22;;;0.90;;
70733;SDS011;58320;48.804;9.252;2023-10-31T01:41:55;3.53;;;1.73;;
70733;SDS011;58320;48.804;9.252;2023-10-31T01:44:20;1.92;;;0.90;;
70733;SDS011;58320;48.804;9.252;2023-10-31T01:46:46;2.95;;;0.93;;
70733;SDS011;58320;48.804;9.252;2023-10-31T01:49:13;2.87;;;0.90;;
70733;SDS011;58320;48.804;9.252;2023-10-31T01:51:40;2.40;;;1.00;;
70733;SDS011;58320;48.804;9.252;2023-10-31T01:54:07;3.13;;;0.80;;
70733;SDS011;58320;48.804;9.252;2023-10-31T01:56:34;2.05;;;0.75;;
70733;SDS011;58320;48.804;9.252;2023-10-31T01:59:00;1.60;;;0.70;;
70733;SDS011;58320;48.804;9.252;2023-10-31T02:01:26;1.85;;;1.00;;
70733;SDS011;58320;48.804;9.252;2023-10-31T02:03:53;3.47;;;1.00;;
70733;SDS011;58320;48.804;9.252;2023-10-31T02:06:18;5.15;;;0.98;;
70733;SDS011;58320;48.804;9.252;2023-10-31T02:08:46;2.00;;;1.00;;
70733;SDS011;58320;48.804;9.252;2023-10-31T02:11:12;1.67;;;0.70;;
70733;SDS011;58320;48.804;9.252;2023-10-31T02:13:38;1.92;;;0.80;;
70733;SDS011;58320;48.804;9.252;2023-10-31T02:16:04;2.27;;;0.73;;
70733;SDS011;58320;48.804;9.252;2023-10-31T02:18:31;2.00;;;0.70;;
70733;SDS011;58320;48.804;9.252;2023-10-31T02:20:57;2.47;;;0.98;;
70733;SDS011;58320;48.804;9.252;2023-10-31T02:23:23;2.22;;;0.90;;
70733;SDS011;58320;48.804;9.252;2023-10-31T02:25:49;1.90;;;1.00;;
70733;SDS011;58320;48.804;9.252;2023-10-31T02:28:15;3.53;;;1.10;;
70733;SDS011;58320;48.804;9.252;2023-10-31T02:30:40;3.27;;;1.10;;
70733;SDS011;58320;48.804;9.252;2023-10-31T02:33:06;2.45;;;1.00;;
70733;SDS011;58320;48.804;9.252;2023-10-31T02:35:32;2.40;;;0.97;;
70733;SDS011;58320;48.804;9.252;2023-10-31T02:37:58;3.58;;;0.70;;
70733;SDS011;58320;48.804;9.252;2023-10-31T02:40:23;1.70;;;0.70;;
70733;SDS011;58320;48.804;9.252;2023-10-31T02:42:49;2.13;;;0.70;;
70733;SDS011;58320;48.804;9.252;2023-10-31T02:45:15;1.85;;;0.75;;
70733;SDS011;58320;48.804;9.252;2023-10-31T02:47:41;2.17;;;0.70;;
70733;SDS011;58320;48.804;9.252;2023-10-31T02:50:06;2.78;;;0.80;;
70733;SDS011;58320;48.804;9.252;2023-10-31T02:52:33;1.73;;;0.90;;
70733;SDS011;58320;48.804;9.252;2023-10-31T02:54:58;3.83;;;0.90;;
70733;SDS011;58320;48.804;9.252;2023-10-31T02:57:24;3.60;;;0.70;;
70733;SDS011;58320;48.804;9.252;2023-10-31T02:59:50;2.00;;;0.90;;
70733;SDS011;58320;48.804;9.252;2023-10-31T03:02:15;3.10;;;1.00;;
70733;SDS011;58320;48.804;9.252;2023-10-31T03:04:41;3.07;;;1.00;;
70733;SDS011;58320;48.804;9.252;2023-10-31T03:07:07;2.90;;;0.85;;
70733;SDS011;58320;48.804;9.252;2023-10-31T03:09:32;2.00;;;0.77;;
70733;SDS011;58320;48.804;9.252;2023-10-31T03:11:58;3.03;;;0.90;;
70733;SDS011;58320;48.804;9.252;2023-10-31T03:14:24;1.90;;;0.87;;
70733;SDS011;58320;48.804;9.252;2023-10-31T03:16:50;1.85;;;0.80;;
70733;SDS011;58320;48.804;9.252;2023-10-31T03:19:15;1.45;;;0.65;;
70733;SDS011;58320;48.804;9.252;2023-10-31T03:21:41;2.13;;;1.07;;
70733;SDS011;58320;48.804;9.252;2023-10-31T03:24:07;2.47;;;0.93;;
70733;SDS011;58320;48.804;9.252;2023-10-31T03:26:33;1.93;;;1.00;;
70733;SDS011;58320;48.804;9.252;2023-10-31T03:28:58;2.05;;;1.00;;
70733;SDS011;58320;48.804;9.252;2023-10-31T03:31:24;3.40;;;0.80;;
70733;SDS011;58320;48.804;9.252;2023-10-31T03:33:50;2.33;;;0.75;;
70733;SDS011;58320;48.804;9.252;2023-10-31T03:36:16;1.95;;;0.77;;
70733;SDS011;58320;48.804;9.252;2023-10-31T03:38:42;3.35;;;1.17;;
70733;SDS011;58320;48.804;9.252;2023-10-31T03:41:08;1.90;;;0.83;;
70733;SDS011;58320;48.804;9.252;2023-10-31T03:43:34;2.13;;;0.70;;
70733;SDS011;58320;48.804;9.252;2023-10-31T03:46:00;1.40;;;0.60;;
70733;SDS011;58320;48.804;9.252;2023-10-31T03:48:26;2.03;;;0.80;;
70733;SDS011;58320;48.804;9.252;2023-10-31T03:50:52;2.97;;;0.90;;
70733;SDS011;58320;48.804;9.252;2023-10-31T03:53:17;2.00;;;0.80;;
70733;SDS011;58320;48.804;9.252;2023-10-31T03:55:43;3.47;;;0.87;;
70733;SDS011;58320;48.804;9.252;2023-10-31T03:58:09;2.00;;;1.00;;
70733;SDS011;58320;48.804;9.252;2023-10-31T04:03:11;2.17;;;1.10;;
70733;SDS011;58320;48.804;9.252;2023-10-31T04:05:36;2.38;;;1.20;;
70733;SDS011;58320;48.804;9.252;2023-10-31T04:08:02;2.13;;;1.10;;
70733;SDS011;58320;48.804;9.252;2023-10-31T04:10:28;3.55;;;1.60;;
70733;SDS011;58320;48.804;9.252;2023-10-31T04:12:54;4.80;;;1.25;;
70733;SDS011;58320;48.804;9.252;2023-10-31T04:15:20;4.27;;;1.40;;
70733;SDS011;58320;48.804;9.252;2023-10-31T04:17:45;3.63;;;1.38;;
70733;SDS011;58320;48.804;9.252;2023-10-31T04:20:11;4.53;;;1.53;;
70733;SDS011;58320;48.804;9.252;2023-10-31T04:22:37;3.42;;;1.30;;
70733;SDS011;58320;48.804;9.252;2023-10-31T04:25:03;3.80;;;1.40;;
70733;SDS011;58320;48.804;9.252;2023-10-31T04:27:29;3.42;;;1.63;;
70733;SDS011;58320;48.804;9.252;2023-10-31T04:29:55;4.00;;;1.50;;
70733;SDS011;58320;48.804;9.252;2023-10-31T04:32:21;3.03;;;1.30;;
70733;SDS011;58320;48.804;9.252;2023-10-31T04:34:47;3.33;;;1.17;;
70733;SDS011;58320;48.804;9.252;2023-10-31T04:37:12;3.70;;;1.70;;
70733;SDS011;58320;48.804;9.252;2023-10-31T04:39:38;5.80;;;1.40;;
70733;SDS011;58320;48.804;9.252;2023-10-31T04:42:04;3.67;;;1.37;;
70733;SDS011;58320;48.804;9.252;2023-10-31T04:44:29;2.97;;;1.30;;
70733;SDS011;58320;48.804;9.252;2023-10-31T04:46:55;4.13;;;1.47;;
70733;SDS011;58320;48.804;9.252;2023-10-31T04:49:21;4.35;;;1.80;;
70733;SDS011;58320;48.804;9.252;2023-10-31T04:51:47;3.17;;;1.60;;
70733;SDS011;58320;48.804;9.252;2023-10-31T04:54:13;3.78;;;1.13;;
70733;SDS011;58320;48.804;9.252;2023-10-31T04:56:39;3.25;;;1.17;;
70733;SDS011;58320;48.804;9.252;2023-10-31T04:59:05;4.43;;;1.20;;
70733;SDS011;58320;48.804;9.252;2023-10-31T05:01:30;5.10;;;1.50;;
70733;SDS011;58320;48.804;9.252;2023-10-31T05:03:56;3.67;;;1.30;;
70733;SDS011;58320;48.804;9.252;2023-10-31T05:06:22;3.30;;;1.38;;
70733;SDS011;58320;48.804;9.252;2023-10-31T05:08:48;2.70;;;1.03;;
70733;SDS011;58320;48.804;9.252;2023-10-31T05:11:17;2.78;;;1.27;;
70733;SDS011;58320;48.804;9.252;2023-10-31T05:13:44;4.38;;;1.20;;
70733;SDS011;58320;48.804;9.252;2023-10-31T05:16:12;3.28;;;1.20;;
70733;SDS011;58320;48.804;9.252;2023-10-31T05:18:38;2.67;;;1.40;;
70733;SDS011;58320;48.804;9.252;2023-10-31T05:21:04;2.65;;;0.98;;
70733;SDS011;58320;48.804;9.252;2023-10-31T05:23:30;2.40;;;1.00;;
70733;SDS011;58320;48.804;9.252;2023-10-31T05:25:57;3.50;;;1.40;;
70733;SDS011;58320;48.804;9.252;2023-10-31T05:28:22;2.23;;;1.17;;
70733;SDS011;58320;48.804;9.252;2023-10-31T05:30:48;3.42;;;1.23;;
70733;SDS011;58320;48.804;9.252;2023-10-31T05:33:14;2.17;;;1.10;;
70733;SDS011;58320;48.804;9.252;2023-10-31T05:35:41;2.47;;;1.20;;
70733;SDS011;58320;48.804;9.252;2023-10-31T05:38:07;2.47;;;0.80;;
70733;SDS011;58320;48.804;9.252;2023-10-31T05:40:33;2.40;;;0.93;;
70733;SDS011;58320;48.804;9.252;2023-10-31T05:43:00;2.55;;;1.40;;
70733;SDS011;58320;48.804;9.252;2023-10-31T05:45:30;2.55;;;1.00;;
70733;SDS011;58320;48.804;9.252;2023-10-31T05:47:56;2.47;;;1.10;;
70733;SDS011;58320;48.804;9.252;2023-10-31T05:50:21;2.67;;;1.00;;
70733;SDS011;58320;48.804;9.252;2023-10-31T05:52:47;4.45;;;1.40;;
70733;SDS011;58320;48.804;9.252;2023-10-31T05:55:13;2.80;;;1.20;;
70733;SDS011;58320;48.804;9.252;2023-10-31T05:57:39;2.30;;;1.10;;
70733;SDS011;58320;48.804;9.252;2023-10-31T06:00:05;3.58;;;1.25;;
70733;SDS011;58320;48.804;9.252;2023-10-31T06:02:32;3.88;;;1.60;;
70733;SDS011;58320;48.804;9.252;2023-10-31T06:04:58;4.13;;;1.60;;
70733;SDS011;58320;48.804;9.252;2023-10-31T06:07:24;4.10;;;2.03;;
70733;SDS011;58320;48.804;9.252;2023-10-31T06:09:49;10.07;;;1.83;;
70733;SDS011;58320;48.804;9.252;2023-10-31T06:12:15;3.70;;;1.50;;
70733;SDS011;58320;48.804;9.252;2023-10-31T06:14:41;3.90;;;1.30;;
70733;SDS011;58320;48.804;9.252;2023-10-31T06:17:06;3.25;;;1.20;;
70733;SDS011;58320;48.804;9.252;2023-10-31T06:19:36;2.80;;;1.40;;
70733;SDS011;58320;48.804;9.252;2023-10-31T06:22:02;3.25;;;0.90;;
70733;SDS011;58320;48.804;9.252;2023-10-31T06:24:28;3.95;;;1.20;;
70733;SDS011;58320;48.804;9.252;2023-10-31T06:26:54;2.60;;;0.93;;
70733;SDS011;58320;48.804;9.252;2023-10-31T06:29:19;3.07;;;1.10;;
70733;SDS011;58320;48.804;9.252;2023-10-31T06:31:45;3.28;;;1.00;;
70733;SDS011;58320;48.804;9.252;2023-10-31T06:34:11;3.73;;;0.87;;
70733;SDS011;58320;48.804;9.252;2023-10-31T06:36:36;2.63;;;0.98;;
70733;SDS011;58320;48.804;9.252;2023-10-31T06:39:02;3.03;;;0.80;;
70733;SDS011;58320;48.804;9.252;2023-10-31T06:41:28;4.65;;;1.08;;
70733;SDS011;58320;48.804;9.252;2023-10-31T06:43:54;2.90;;;1.10;;
70733;SDS011;58320;48.804;9.252;2023-10-31T06:46:19;5.15;;;0.70;;
70733;SDS011;58320;48.804;9.252;2023-10-31T06:48:45;3.03;;;1.10;;
70733;SDS011;58320;48.804;9.252;2023-10-31T06:51:11;5.53;;;1.10;;
70733;SDS011;58320;48.804;9.252;2023-10-31T06:53:36;2.67;;;1.00;;
70733;SDS011;58320;48.804;9.252;2023-10-31T06:56:02;1.70;;;0.70;;
70733;SDS011;58320;48.804;9.252;2023-10-31T06:58:28;3.95;;;1.05;;
70733;SDS011;58320;48.804;9.252;2023-10-31T07:00:54;4.23;;;1.00;;
70733;SDS011;58320;48.804;9.252;2023-10-31T07:03:20;2.80;;;1.20;;
70733;SDS011;58320;48.804;9.252;2023-10-31T07:05:45;2.90;;;1.05;;
70733;SDS011;58320;48.804;9.252;2023-10-31T07:08:11;3.77;;;1.10;;
70733;SDS011;58320;48.804;9.252;2023-10-31T07:10:39;3.42;;;1.08;;
70733;SDS011;58320;48.804;9.252;2023-10-31T07:13:04;2.55;;;0.90;;
70733;SDS011;58320;48.804;9.252;2023-10-31T07:15:30;2.00;;;0.80;;
70733;SDS011;58320;48.804;9.252;2023-10-31T07:17:56;3.67;;;1.20;;
70733;SDS011;58320;48.804;9.252;2023-10-31T07:20:22;2.72;;;1.20;;
70733;SDS011;58320;48.804;9.252;2023-10-31T07:22:48;3.07;;;1.10;;
70733;SDS011;58320;48.804;9.252;2023-10-31T07:25:13;6.43;;;1.90;;
70733;SDS011;58320;48.804;9.252;2023-10-31T07:27:39;3.10;;;1.45;;
70733;SDS011;58320;48.804;9.252;2023-10-31T07:30:06;4.67;;;1.30;;
70733;SDS011;58320;48.804;9.252;2023-10-31T07:32:32;5.22;;;1.30;;
70733;SDS011;58320;48.804;9.252;2023-10-31T07:34:58;3.47;;;1.40;;
70733;SDS011;58320;48.804;9.252;2023-10-31T07:37:23;3.15;;;1.10;;
70733;SDS011;58320;48.804;9.252;2023-10-31T07:39:49;2.00;;;0.90;;
70733;SDS011;58320;48.804;9.252;2023-10-31T07:42:18;5.50;;;0.80;;
70733;SDS011;58320;48.804;9.252;2023-10-31T07:44:43;2.33;;;0.90;;
70733;SDS011;58320;48.804;9.252;2023-10-31T07:47:09;3.15;;;0.77;;
70733;SDS011;58320;48.804;9.252;2023-10-31T07:49:35;2.17;;;0.80;;
70733;SDS011;58320;48.804;9.252;2023-10-31T07:52:01;2.23;;;0.90;;
70733;SDS011;58320;48.804;9.252;2023-10-31T07:54:26;2.50;;;1.15;;
70733;SDS011;58320;48.804;9.252;2023-10-31T07:56:52;5.53;;;1.20;;
70733;SDS011;58320;48.804;9.252;2023-10-31T07:59:18;4.10;;;0.80;;
70733;SDS011;58320;48.804;9.252;2023-10-31T08:01:43;2.57;;;0.80;;
70733;SDS011;58320;48.804;9.252;2023-10-31T08:04:09;1.67;;;0.70;;
70733;SDS011;58320;48.804;9.252;2023-10-31T08:06:35;2.47;;;0.90;;
70733;SDS011;58320;48.804;9.252;2023-10-31T08:09:01;2.20;;;0.70;;
70733;SDS011;58320;48.804;9.252;2023-10-31T08:11:27;3.03;;;0.82;;
70733;SDS011;58320;48.804;9.252;2023-10-31T08:13:52;2.50;;;0.90;;
70733;SDS011;58320;48.804;9.252;2023-10-31T08:16:18;2.47;;;0.70;;
70733;SDS011;58320;48.804;9.252;2023-10-31T08:18:44;2.25;;;0.60;;
70733;SDS011;58320;48.804;9.252;2023-10-31T08:21:11;1.77;;;0.80;;
70733;SDS011;58320;48.804;9.252;2023-10-31T08:23:37;2.23;;;0.70;;
70733;SDS011;58320;48.804;9.252;2023-10-31T08:26:03;5.50;;;0.98;;
70733;SDS011;58320;48.804;9.252;2023-10-31T08:28:28;4.00;;;0.90;;
70733;SDS011;58320;48.804;9.252;2023-10-31T08:30:55;2.87;;;0.80;;
70733;SDS011;58320;48.804;9.252;2023-10-31T08:33:22;3.05;;;0.98;;
70733;SDS011;58320;48.804;9.252;2023-10-31T08:35:48;3.42;;;1.13;;
70733;SDS011;58320;48.804;9.252;2023-10-31T08:38:14;3.33;;;0.85;;
70733;SDS011;58320;48.804;9.252;2023-10-31T08:40:40;2.43;;;0.70;;
70733;SDS011;58320;48.804;9.252;2023-10-31T08:43:06;2.30;;;0.80;;
70733;SDS011;58320;48.804;9.252;2023-10-31T08:45:32;1.92;;;1.00;;
70733;SDS011;58320;48.804;9.252;2023-10-31T08:47:59;2.67;;;1.02;;
70733;SDS011;58320;48.804;9.252;2023-10-31T08:50:25;2.30;;;0.90;;
70733;SDS011;58320;48.804;9.252;2023-10-31T08:52:51;3.05;;;0.63;;
70733;SDS011;58320;48.804;9.252;2023-10-31T08:55:17;1.88;;;0.70;;
70733;SDS011;58320;48.804;9.252;2023-10-31T08:57:43;3.50;;;0.80;;
70733;SDS011;58320;48.804;9.252;2023-10-31T09:00:09;3.20;;;0.90;;
70733;SDS011;58320;48.804;9.252;2023-10-31T09:02:35;2.10;;;1.00;;
70733;SDS011;58320;48.804;9.252;2023-10-31T09:05:01;4.60;;;0.77;;
70733;SDS011;58320;48.804;9.252;2023-10-31T09:07:26;4.03;;;0.93;;
70733;SDS011;58320;48.804;9.252;2023-10-31T09:09:52;2.42;;;0.98;;
70733;SDS011;58320;48.804;9.252;2023-10-31T09:12:18;2.97;;;0.63;;
70733;SDS011;58320;48.804;9.252;2023-10-31T09:14:44;2.55;;;1.17;;
70733;SDS011;58320;48.804;9.252;2023-10-31T09:17:10;2.47;;;0.75;;
70733;SDS011;58320;48.804;9.252;2023-10-31T09:19:35;1.63;;;0.60;;
70733;SDS011;58320;48.804;9.252;2023-10-31T09:22:01;2.50;;;0.93;;
70733;SDS011;58320;48.804;9.252;2023-10-31T09:24:27;4.40;;;0.63;;
70733;SDS011;58320;48.804;9.252;2023-10-31T09:26:52;2.70;;;0.80;;
70733;SDS011;58320;48.804;9.252;2023-10-31T09:29:18;4.20;;;0.90;;
70733;SDS011;58320;48.804;9.252;2023-10-31T09:31:44;3.83;;;1.00;;
70733;SDS011;58320;48.804;9.252;2023-10-31T09:34:10;3.83;;;0.93;;
70733;SDS011;58320;48.804;9.252;2023-10-31T09:36:35;2.33;;;1.00;;
70733;SDS011;58320;48.804;9.252;2023-10-31T09:39:01;3.10;;;1.10;;
70733;SDS011;58320;48.804;9.252;2023-10-31T09:41:27;4.15;;;0.88;;
70733;SDS011;58320;48.804;9.252;2023-10-31T09:43:53;2.20;;;0.93;;
70733;SDS011;58320;48.804;9.252;2023-10-31T09:46:19;3.80;;;1.30;;
70733;SDS011;58320;48.804;9.252;2023-10-31T09:48:47;3.08;;;0.88;;
70733;SDS011;58320;48.804;9.252;2023-10-31T09:51:14;2.92;;;0.95;;
70733;SDS011;58320;48.804;9.252;2023-10-31T09:53:41;8.00;;;1.10;;
70733;SDS011;58320;48.804;9.252;2023-10-31T09:56:12;4.15;;;1.17;;
70733;SDS011;58320;48.804;9.252;2023-10-31T09:58:39;4.80;;;0.97;;
70733;SDS011;58320;48.804;9.252;2023-10-31T10:01:06;3.80;;;0.70;;
70733;SDS011;58320;48.804;9.252;2023-10-31T10:03:32;4.97;;;1.00;;
70733;SDS011;58320;48.804;9.252;2023-10-31T10:05:58;5.95;;;1.10;;
70733;SDS011;58320;48.804;9.252;2023-10-31T10:08:24;2.87;;;1.10;;
70733;SDS011;58320;48.804;9.252;2023-10-31T10:10:50;3.55;;;0.95;;
70733;SDS011;58320;48.804;9.252;2023-10-31T10:13:22;3.28;;;1.05;;
70733;SDS011;58320;48.804;9.252;2023-10-31T10:15:49;3.73;;;1.17;;
70733;SDS011;58320;48.804;9.252;2023-10-31T10:18:26;2.83;;;0.90;;
70733;SDS011;58320;48.804;9.252;2023-10-31T10:21:06;4.15;;;0.88;;
70733;SDS011;58320;48.804;9.252;2023-10-31T10:23:33;5.18;;;0.95;;
70733;SDS011;58320;48.804;9.252;2023-10-31T10:25:59;4.00;;;1.00;;
70733;SDS011;58320;48.804;9.252;2023-10-31T10:28:27;3.65;;;0.90;;
70733;SDS011;58320;48.804;9.252;2023-10-31T10:30:54;2.33;;;0.98;;
70733;SDS011;58320;48.804;9.252;2023-10-31T10:33:21;3.15;;;0.80;;
70733;SDS011;58320;48.804;9.252;2023-10-31T10:35:47;2.25;;;1.00;;
70733;SDS011;58320;48.804;9.252;2023-10-31T10:38:17;4.60;;;0.90;;
70733;SDS011;58320;48.804;9.252;2023-10-31T10:40:44;2.78;;;1.00;;
70733;SDS011;58320;48.804;9.252;2023-10-31T10:43:22;2.90;;;0.90;;
70733;SDS011;58320;48.804;9.252;2023-10-31T10:45:53;4.22;;;1.10;;
70733;SDS011;58320;48.804;9.252;2023-10-31T10:48:21;5.85;;;1.20;;
70733;SDS011;58320;48.804;9.252;2023-10-31T10:50:51;4.57;;;1.10;;
70733;SDS011;58320;48.804;9.252;2023-10-31T10:53:23;3.55;;;1.10;;
70733;SDS011;58320;48.804;9.252;2023-10-31T10:55:55;3.75;;;1.10;;
70733;SDS011;58320;48.804;9.252;2023-10-31T10:59:30;3.40;;;0.95;;
70733;SDS011;58320;48.804;9.252;2023-10-31T11:01:28;3.85;;;0.95;;
70733;SDS011;58320;48.804;9.252;2023-10-31T11:03:56;3.60;;;0.90;;
70733;SDS011;58320;48.804;9.252;2023-10-31T11:06:22;3.47;;;0.80;;
70733;SDS011;58320;48.804;9.252;2023-10-31T11:08:49;3.85;;;0.80;;
70733;SDS011;58320;48.804;9.252;2023-10-31T11:11:16;2.20;;;1.00;;
70733;SDS011;58320;48.804;9.252;2023-10-31T11:13:43;5.18;;;1.30;;
70733;SDS011;58320;48.804;9.252;2023-10-31T11:16:12;6.60;;;1.00;;
70733;SDS011;58320;48.804;9.252;2023-10-31T11:18:44;2.30;;;0.80;;
70733;SDS011;58320;48.804;9.252;2023-10-31T11:21:10;3.60;;;0.70;;
70733;SDS011;58320;48.804;9.252;2023-10-31T11:23:36;2.55;;;1.02;;
70733;SDS011;58320;48.804;9.252;2023-10-31T11:26:02;3.27;;;1.00;;
70733;SDS011;58320;48.804;9.252;2023-10-31T11:28:28;3.17;;;0.90;;
70733;SDS011;58320;48.804;9.252;2023-10-31T11:30:57;2.75;;;0.80;;
70733;SDS011;58320;48.804;9.252;2023-10-31T11:33:26;3.20;;;0.95;;
70733;SDS011;58320;48.804;9.252;2023-10-31T11:35:51;2.53;;;1.10;;
70733;SDS011;58320;48.804;9.252;2023-10-31T11:38:34;2.42;;;1.02;;
70733;SDS011;58320;48.804;9.252;2023-10-31T11:41:02;2.38;;;0.98;;
70733;SDS011;58320;48.804;9.252;2023-10-31T11:46:04;3.93;;;0.93;;
70733;SDS011;58320;48.804;9.252;2023-10-31T11:48:45;2.80;;;1.50;;
70733;SDS011;58320;48.804;9.252;2023-10-31T11:51:15;5.53;;;1.83;;
70733;SDS011;58320;48.804;9.252;2023-10-31T11:53:41;4.83;;;1.87;;
70733;SDS011;58320;48.804;9.252;2023-10-31T11:56:12;4.05;;;1.30;;
70733;SDS011;58320;48.804;9.252;2023-10-31T11:58:37;2.83;;;1.10;;
70733;SDS011;58320;48.804;9.252;2023-10-31T12:01:04;4.57;;;1.00;;
70733;SDS011;58320;48.804;9.252;2023-10-31T12:03:41;4.00;;;1.20;;
70733;SDS011;58320;48.804;9.252;2023-10-31T12:06:12;3.67;;;1.45;;
70733;SDS011;58320;48.804;9.252;2023-10-31T12:08:39;4.68;;;1.70;;
70733;SDS011;58320;48.804;9.252;2023-10-31T12:11:10;3.75;;;1.52;;
70733;SDS011;58320;48.804;9.252;2023-10-31T12:13:42;4.37;;;1.87;;
70733;SDS011;58320;48.804;9.252;2023-10-31T12:16:22;5.93;;;1.55;;
70733;SDS011;58320;48.804;9.252;2023-10-31T12:19:09;5.20;;;1.35;;
70733;SDS011;58320;48.804;9.252;2023-10-31T12:24:08;3.65;;;1.50;;
70733;SDS011;58320;48.804;9.252;2023-10-31T12:26:36;4.07;;;1.10;;
70733;SDS011;58320;48.804;9.252;2023-10-31T12:34:20;3.60;;;1.00;;
70733;SDS011;58320;48.804;9.252;2023-10-31T12:36:48;3.75;;;1.63;;
70733;SDS011;58320;48.804;9.252;2023-10-31T12:39:16;6.73;;;1.37;;
70733;SDS011;58320;48.804;9.252;2023-10-31T12:41:46;3.72;;;1.27;;
70733;SDS011;58320;48.804;9.252;2023-10-31T12:44:13;4.20;;;1.30;;
70733;SDS011;58320;48.804;9.252;2023-10-31T12:46:46;3.20;;;1.40;;
70733;SDS011;58320;48.804;9.252;2023-10-31T12:49:12;4.23;;;1.40;;
70733;SDS011;58320;48.804;9.252;2023-10-31T12:51:55;3.38;;;1.27;;
70733;SDS011;58320;48.804;9.252;2023-10-31T12:57:02;2.80;;;1.02;;
70733;SDS011;58320;48.804;9.252;2023-10-31T12:59:33;5.55;;;1.08;;
70733;SDS011;58320;48.804;9.252;2023-10-31T13:02:03;3.00;;;0.90;;
70733;SDS011;58320;48.804;9.252;2023-10-31T13:04:31;3.05;;;1.10;;
70733;SDS011;58320;48.804;9.252;2023-10-31T13:06:59;2.55;;;1.10;;
70733;SDS011;58320;48.804;9.252;2023-10-31T13:09:29;2.55;;;0.82;;
70733;SDS011;58320;48.804;9.252;2023-10-31T13:12:01;2.88;;;1.00;;
70733;SDS011;58320;48.804;9.252;2023-10-31T13:14:29;3.87;;;0.87;;
70733;SDS011;58320;48.804;9.252;2023-10-31T13:16:55;2.60;;;1.10;;
70733;SDS011;58320;48.804;9.252;2023-10-31T13:19:21;3.40;;;1.05;;
70733;SDS011;58320;48.804;9.252;2023-10-31T13:21:46;3.27;;;1.07;;
70733;SDS011;58320;48.804;9.252;2023-10-31T13:24:13;2.63;;;1.00;;
70733;SDS011;58320;48.804;9.252;2023-10-31T13:26:39;4.60;;;1.10;;
70733;SDS011;58320;48.804;9.252;2023-10-31T13:29:04;4.57;;;0.73;;
70733;SDS011;58320;48.804;9.252;2023-10-31T13:31:30;4.05;;;1.00;;
70733;SDS011;58320;48.804;9.252;2023-10-31T13:33:56;2.73;;;1.10;;
70733;SDS011;58320;48.804;9.252;2023-10-31T13:36:21;2.92;;;0.90;;
70733;SDS011;58320;48.804;9.252;2023-10-31T13:38:47;2.47;;;0.80;;
70733;SDS011;58320;48.804;9.252;2023-10-31T13:41:13;3.55;;;1.20;;
70733;SDS011;58320;48.804;9.252;2023-10-31T13:43:39;4.00;;;0.90;;
70733;SDS011;58320;48.804;9.252;2023-10-31T13:46:05;3.00;;;1.08;;
70733;SDS011;58320;48.804;9.252;2023-10-31T13:48:31;5.47;;;1.10;;
70733;SDS011;58320;48.804;9.252;2023-10-31T13:50:57;1.92;;;0.82;;
70733;SDS011;58320;48.804;9.252;2023-10-31T13:53:23;2.25;;;1.02;;
70733;SDS011;58320;48.804;9.252;2023-10-31T13:55:49;1.83;;;0.80;;
70733;SDS011;58320;48.804;9.252;2023-10-31T13:58:15;2.53;;;1.00;;
70733;SDS011;58320;48.804;9.252;2023-10-31T14:00:43;2.30;;;1.10;;
70733;SDS011;58320;48.804;9.252;2023-10-31T14:03:12;3.55;;;0.75;;
70733;SDS011;58320;48.804;9.252;2023-10-31T14:05:37;3.78;;;0.90;;
70733;SDS011;58320;48.804;9.252;2023-10-31T14:08:04;3.10;;;0.90;;
70733;SDS011;58320;48.804;9.252;2023-10-31T14:10:36;3.33;;;1.30;;
70733;SDS011;58320;48.804;9.252;2023-10-31T14:13:15;2.45;;;1.08;;
70733;SDS011;58320;48.804;9.252;2023-10-31T14:15:42;3.65;;;1.20;;
70733;SDS011;58320;48.804;9.252;2023-10-31T14:18:11;2.40;;;0.97;;
70733;SDS011;58320;48.804;9.252;2023-10-31T14:20:40;3.05;;;1.20;;
70733;SDS011;58320;48.804;9.252;2023-10-31T14:23:06;2.17;;;0.95;;
70733;SDS011;58320;48.804;9.252;2023-10-31T14:25:35;2.53;;;1.00;;
70733;SDS011;58320;48.804;9.252;2023-10-31T14:28:03;2.03;;;0.68;;
70733;SDS011;58320;48.804;9.252;2023-10-31T14:30:29;4.38;;;1.05;;
70733;SDS011;58320;48.804;9.252;2023-10-31T14:32:55;2.00;;;1.00;;
70733;SDS011;58320;48.804;9.252;2023-10-31T14:35:20;1.60;;;0.68;;
70733;SDS011;58320;48.804;9.252;2023-10-31T14:37:46;1.95;;;0.80;;
70733;SDS011;58320;48.804;9.252;2023-10-31T14:40:12;3.00;;;1.00;;
70733;SDS011;58320;48.804;9.252;2023-10-31T14:42:38;2.65;;;0.80;;
70733;SDS011;58320;48.804;9.252;2023-10-31T14:45:04;3.33;;;1.13;;
70733;SDS011;58320;48.804;9.252;2023-10-31T14:47:30;2.10;;;0.97;;
70733;SDS011;58320;48.804;9.252;2023-10-31T14:49:55;4.30;;;1.42;;
70733;SDS011;58320;48.804;9.252;2023-10-31T14:52:21;4.07;;;1.20;;
70733;SDS011;58320;48.804;9.252;2023-10-31T14:54:47;2.53;;;1.10;;
70733;SDS011;58320;48.804;9.252;2023-10-31T14:57:13;3.95;;;1.15;;
70733;SDS011;58320;48.804;9.252;2023-10-31T14:59:40;4.73;;;1.47;;
70733;SDS011;58320;48.804;9.252;2023-10-31T15:02:06;2.67;;;1.20;;